Freeport, IL

6:47 AM CDT on June 27, 2017 (GMT -0500)
Albertus

Weather History for KFEP - February, 2013

Change the Weather History Date:

Thursday, February 28, 2013

  Actual Average Record
Temperature  
Mean Temperature 31 °F -  
Max Temperature 34 °F 38 °F 65 °F (1976)
Min Temperature 27 °F 20 °F -18 °F (2015)
Degree Days  
Heating Degree Days 34    
Moisture  
Dew Point 28 °F    
Average Humidity 82    
Maximum Humidity 91    
Minimum Humidity 73    
Precipitation  
Precipitation 0.01 in - - ()
Sea Level Pressure  
Sea Level Pressure 29.98 in    
Wind  
Wind Speed 11 mph (NNW)    
Max Wind Speed 16 mph    
Max Gust Speed 22 mph    
Visibility 10 miles    
Events Snow    
Averages and records for this station are not official NWS values.
T = Trace of Precipitation, MM = Missing Value Source: NWS Daily Summary

Daily Weather History Graph

Daily Weather History Graph

Search for Another Location

Airport or City:

Trip Planner

Search our weather history database for the weather conditions in past years. The results will help you decide how hot, cold, wet, or windy it might be!

Date:

Astronomy

Feb. 28, 2013 Rise Set
Actual Time 6:34 AM CST 5:47 PM CST
Civil Twilight 6:06 AM CST 6:15 PM CST
Nautical Twilight 5:34 AM CST 6:48 PM CST
Astronomical Twilight 5:01 AM CST 7:20 PM CST
Moon 9:19 PM CST (2/28) 7:40 AM CST (2/28)
Length of Visible Light 12h 08m
Length of Day
11h 12m
Waning Gibbous, 90% of the Moon is Illuminated
Feb 28
Waning Gibbous
Mar 4
Last Quarter
Mar 11
New
Mar 19
First Quarter
Mar 27
Full

Hourly Weather History & Observations

Time (CST) Temp. Windchill Dew Point Humidity Pressure Visibility Wind Dir Wind Speed Gust Speed Precip Events Conditions
12:15 AM 33.8 °F 25.3 °F 31.5 °F 91% 29.79 in 10.0 mi NW 11.5 mph - N/A   Overcast
12:35 AM 33.8 °F 25.3 °F 30.2 °F 87% 29.80 in 10.0 mi NW 11.5 mph - N/A   Overcast
12:55 AM 33.8 °F 24.8 °F 30.6 °F 88% 29.80 in 10.0 mi NW 12.7 mph - N/A   Overcast
1:15 AM 33.8 °F 24.3 °F 30.2 °F 87% 29.81 in 10.0 mi NW 13.8 mph - N/A   Overcast
1:35 AM 33.8 °F 25.3 °F 30.2 °F 87% 29.81 in 10.0 mi NW 11.5 mph 18.4 mph N/A   Overcast
1:55 AM 33.8 °F 26.4 °F 30.0 °F 86% 29.82 in 10.0 mi NW 9.2 mph - N/A   Overcast
2:15 AM 33.8 °F 25.8 °F 30.2 °F 87% 29.82 in 10.0 mi NW 10.4 mph - N/A   Overcast
2:35 AM 33.8 °F 26.4 °F 30.2 °F 87% 29.82 in 10.0 mi NW 9.2 mph 16.1 mph N/A   Overcast
2:55 AM 33.8 °F 25.3 °F 30.2 °F 87% 29.82 in 10.0 mi NW 11.5 mph - N/A   Overcast
3:15 AM 33.8 °F 25.8 °F 30.2 °F 87% 29.83 in 10.0 mi NW 10.4 mph - N/A   Overcast
3:35 AM 33.8 °F 24.8 °F 30.6 °F 88% 29.84 in 7.0 mi NW 12.7 mph 16.1 mph N/A   Overcast
3:55 AM 33.8 °F 26.4 °F 30.7 °F 89% 29.85 in 4.0 mi NW 9.2 mph 16.1 mph N/A Snow Light Snow
4:15 AM 33.8 °F 26.4 °F 30.9 °F 89% 29.85 in 5.0 mi NW 9.2 mph - N/A Snow Light Snow
4:35 AM 33.8 °F 27.0 °F 30.2 °F 87% 29.86 in 7.0 mi NW 8.1 mph - N/A Snow Light Snow
4:55 AM 33.8 °F 25.8 °F 30.0 °F 86% 29.87 in 10.0 mi NW 10.4 mph - N/A   Overcast
5:15 AM 33.8 °F 25.8 °F 30.0 °F 86% 29.87 in 10.0 mi NW 10.4 mph - N/A   Overcast
5:35 AM 33.8 °F 27.0 °F 30.0 °F 86% 29.88 in 10.0 mi NNW 8.1 mph - N/A   Overcast
5:55 AM 33.8 °F 27.0 °F 30.2 °F 87% 29.89 in 10.0 mi NNW 8.1 mph - N/A   Overcast
6:15 AM 33.8 °F 25.3 °F 30.2 °F 87% 29.89 in 10.0 mi NW 11.5 mph - N/A   Overcast
6:35 AM 33.8 °F 25.8 °F 30.0 °F 86% 29.90 in 10.0 mi NW 10.4 mph - N/A   Overcast
6:55 AM 33.8 °F 25.8 °F 29.8 °F 85% 29.91 in 10.0 mi NW 10.4 mph - N/A   Overcast
7:15 AM 33.8 °F 25.3 °F 29.8 °F 85% 29.91 in 10.0 mi NW 11.5 mph - N/A   Overcast
7:35 AM 33.8 °F 25.8 °F 29.3 °F 84% 29.92 in 10.0 mi NNW 10.4 mph - N/A   Overcast
7:55 AM 33.8 °F 24.8 °F 29.3 °F 84% 29.93 in 10.0 mi NW 12.7 mph - 0.01 in   Overcast
8:15 AM 33.8 °F 25.8 °F 29.3 °F 84% 29.94 in 10.0 mi NNW 10.4 mph 17.3 mph N/A   Overcast
8:35 AM 33.8 °F 25.3 °F 29.3 °F 84% 29.95 in 10.0 mi NNW 11.5 mph 18.4 mph N/A   Overcast
8:55 AM 33.8 °F 26.4 °F 28.4 °F 81% 29.95 in 10.0 mi NNW 9.2 mph - N/A   Overcast
9:15 AM 33.8 °F 25.8 °F 28.8 °F 82% 29.96 in 10.0 mi NNW 10.4 mph 17.3 mph N/A   Overcast
9:35 AM 34.5 °F 25.7 °F 29.1 °F 81% 29.96 in 10.0 mi NNW 12.7 mph 19.6 mph N/A   Overcast
9:55 AM 34.2 °F 24.8 °F 29.1 °F 82% 29.97 in 10.0 mi NNW 13.8 mph 18.4 mph N/A   Overcast
10:15 AM 34.2 °F 24.8 °F 28.8 °F 81% 29.97 in 10.0 mi NNW 13.8 mph 17.3 mph N/A   Overcast
10:35 AM 33.8 °F 25.3 °F 28.4 °F 81% 29.98 in 10.0 mi NNW 11.5 mph 21.9 mph N/A   Overcast
10:55 AM 33.8 °F 23.5 °F 28.8 °F 82% 29.99 in 10.0 mi NNW 16.1 mph 21.9 mph N/A   Overcast
11:15 AM 33.8 °F 24.3 °F 28.9 °F 82% 29.99 in 10.0 mi NNW 13.8 mph 19.6 mph N/A   Overcast
11:35 AM 33.8 °F 25.3 °F 28.9 °F 82% 30.00 in 10.0 mi NNW 11.5 mph 18.4 mph N/A   Overcast
11:55 AM 34.0 °F 25.0 °F 28.6 °F 81% 30.00 in 10.0 mi NNW 12.7 mph 20.7 mph N/A   Overcast
12:15 PM 34.7 °F 25.5 °F 29.1 °F 80% 30.00 in 10.0 mi NNW 13.8 mph 17.3 mph N/A   Overcast
12:35 PM 34.9 °F 25.7 °F 28.8 °F 78% 30.00 in 10.0 mi NNW 13.8 mph 18.4 mph N/A   Overcast
12:55 PM 34.3 °F 25.9 °F 28.6 °F 79% 30.00 in 10.0 mi NNW 11.5 mph 18.4 mph N/A   Overcast
1:15 PM 34.7 °F 26.4 °F 28.9 °F 79% 30.00 in 10.0 mi NNW 11.5 mph 16.1 mph N/A   Overcast
1:35 PM 34.7 °F 26.9 °F 28.4 °F 78% 30.00 in 10.0 mi NNW 10.4 mph - N/A   Overcast
1:55 PM 34.9 °F 28.3 °F 28.8 °F 78% 30.00 in 10.0 mi NNW 8.1 mph - N/A   Overcast
2:15 PM 34.5 °F 27.3 °F 28.0 °F 77% 30.01 in 10.0 mi North 9.2 mph - N/A   Overcast
2:35 PM 34.9 °F 27.7 °F 27.3 °F 74% 30.01 in 10.0 mi NNW 9.2 mph 16.1 mph N/A   Overcast
2:55 PM 34.9 °F 27.7 °F 27.1 °F 73% 30.02 in 10.0 mi North 9.2 mph - N/A   Overcast
3:15 PM 34.9 °F 27.1 °F 27.0 °F 73% 30.02 in 10.0 mi NNW 10.4 mph - N/A   Overcast
3:35 PM 34.9 °F 27.1 °F 27.1 °F 73% 30.03 in 10.0 mi North 10.4 mph - N/A   Overcast
3:55 PM 33.8 °F 28.6 °F 26.6 °F 75% 30.03 in 10.0 mi North 5.8 mph - N/A   Overcast
4:15 PM 33.8 °F 30.8 °F 27.1 °F 77% 30.04 in 10.0 mi North 3.5 mph - N/A   Overcast
4:35 PM 33.8 °F 26.4 °F 26.2 °F 74% 30.04 in 10.0 mi North 9.2 mph - N/A   Overcast
4:55 PM 33.8 °F 28.6 °F 26.6 °F 75% 30.05 in 10.0 mi North 5.8 mph - N/A   Overcast
5:15 PM 33.8 °F 28.6 °F 27.3 °F 77% 30.05 in 10.0 mi North 5.8 mph - N/A   Overcast
5:35 PM 33.8 °F 30.8 °F 27.9 °F 79% 30.06 in 10.0 mi North 3.5 mph - N/A   Overcast
5:55 PM 33.8 °F 28.6 °F 27.7 °F 78% 30.07 in 10.0 mi NNW 5.8 mph - N/A   Overcast
6:15 PM 33.8 °F 29.6 °F 28.2 °F 80% 30.07 in 10.0 mi NNW 4.6 mph - N/A   Overcast
6:35 PM 33.8 °F 30.8 °F 28.2 °F 80% 30.08 in 10.0 mi NNW 3.5 mph - N/A   Overcast
6:55 PM 33.8 °F 28.6 °F 28.8 °F 82% 30.08 in 10.0 mi NNW 5.8 mph - N/A   Overcast
7:15 PM 33.8 °F 28.6 °F 28.9 °F 82% 30.09 in 10.0 mi NNW 5.8 mph - N/A   Overcast
7:35 PM 33.8 °F 25.8 °F 28.9 °F 82% 30.09 in 10.0 mi North 10.4 mph - N/A   Overcast
7:55 PM 33.8 °F 24.8 °F 29.1 °F 83% 30.09 in 10.0 mi North 12.7 mph - N/A   Overcast
8:15 PM 32.0 °F 24.2 °F 27.7 °F 84% 30.09 in 10.0 mi North 9.2 mph - N/A   Overcast
8:35 PM 31.5 °F 23.5 °F 27.1 °F 84% 30.09 in 10.0 mi North 9.2 mph - N/A   Overcast
8:55 PM 31.5 °F 24.9 °F 27.3 °F 85% 30.09 in 10.0 mi North 6.9 mph - N/A   Overcast
9:15 PM 31.5 °F 23.5 °F 26.8 °F 83% 30.10 in 10.0 mi North 9.2 mph - N/A   Overcast
9:35 PM 31.5 °F 22.3 °F 26.6 °F 82% 30.10 in 10.0 mi North 11.5 mph - N/A   Overcast
9:55 PM 31.3 °F 21.1 °F 25.7 °F 80% 30.11 in 10.0 mi NNE 13.8 mph 18.4 mph N/A   Overcast
10:15 PM 28.9 °F 19.8 °F 23.4 °F 80% 30.11 in 7.0 mi NNE 10.4 mph - N/A   Overcast
10:35 PM 28.8 °F 20.2 °F 23.0 °F 79% 30.11 in 10.0 mi NNE 9.2 mph - N/A   Overcast
10:55 PM 28.8 °F 20.9 °F 22.5 °F 77% 30.11 in 10.0 mi NNE 8.1 mph - N/A   Overcast
11:15 PM 28.8 °F 18.4 °F 21.2 °F 73% 30.11 in 10.0 mi NNE 12.7 mph - N/A   Overcast
11:35 PM 28.8 °F 17.9 °F 21.7 °F 75% 30.11 in 10.0 mi NNE 13.8 mph - N/A   Overcast
11:55 PM 27.5 °F 16.3 °F 21.2 °F 77% 30.12 in 10.0 mi NNE 13.8 mph 20.7 mph N/A   Overcast